Avondale, Alabama
Current Conditions -  °F | °C
As of 8:53 PM on Monday 26 Jan 2015 (Local Time) from KBHM Reporting Station
Broken Clouds Broken Clouds  
Wind Chill: 39°   Ceiling: 7000
Heat Index: 43°   Visibility: 10mi
Dew Point: 31°   Wind: 7mph
Humidity: 62%   Direction: 310°NW
Pressure: 30"   Gusts: NA
Location:  33.5222°N, 86.7699°W
Report Text: KBHM 270253Z 31006KT 10SM BKN070 06/M01 A3000 RMK AO2 PRESRR SLP160 T00611006 53004
Loading
Personal Weather Stations






























Interactive Weather Map New forecast layout! Learn more

10-Day Weather Forecast

Advertisements
Track Severe Weather on mobile